createdAt,value
2022-10-21T00:02:23.131Z,101250.38
2022-10-21T00:05:07.595Z,101246.34
2022-10-21T00:07:51.265Z,101247.41
2022-10-21T00:13:21.533Z,101212.13
2022-10-21T00:16:07.790Z,101235.28
2022-10-21T00:18:51.717Z,101242.38
2022-10-21T00:21:36.871Z,101207.19
2022-10-21T00:24:20.606Z,101219.28
2022-10-21T00:27:05.750Z,101198.16
2022-10-21T00:29:49.892Z,101227.84
2022-10-21T00:32:33.854Z,101230.69
2022-10-21T00:35:17.775Z,101185.91
2022-10-21T00:38:01.485Z,101213.63
2022-10-21T00:40:45.269Z,101238.66
2022-10-21T00:43:30.649Z,101202.91
2022-10-21T00:46:18.477Z,101235.25
2022-10-21T00:49:06.570Z,101226.50
2022-10-21T00:51:54.898Z,101225.69
2022-10-21T00:54:40.663Z,101226.53
2022-10-21T00:57:27.028Z,101228.75
2022-10-21T01:00:13.896Z,101178.09
2022-10-21T01:02:57.933Z,101183.88
2022-10-21T01:05:43.531Z,101184.31
2022-10-21T01:08:28.382Z,101219.38
2022-10-21T01:11:15.901Z,101184.88
2022-10-21T01:14:25.399Z,101172.19
2022-10-21T01:17:40.398Z,101215.28
2022-10-21T01:20:41.585Z,101169.53
2022-10-21T01:24:00.950Z,101222.56
2022-10-21T01:27:04.211Z,101182.94
2022-10-21T01:30:18.611Z,101214.22
2022-10-21T01:33:38.097Z,101227.53
2022-10-21T01:36:32.429Z,101170.22
2022-10-21T01:39:23.020Z,101186.84
2022-10-21T01:42:14.345Z,101166.59
2022-10-21T01:45:06.964Z,101195.31
2022-10-21T01:47:55.767Z,101173.59
2022-10-21T01:50:46.454Z,101219.19
2022-10-21T01:53:36.145Z,101170.13
2022-10-21T01:56:22.242Z,101221.41
2022-10-21T01:59:07.881Z,101190.25
2022-10-21T02:01:53.243Z,101221.44
2022-10-21T02:04:40.786Z,101247.41
2022-10-21T02:07:26.244Z,101232.38
2022-10-21T02:10:11.011Z,101231.34
2022-10-21T02:12:57.675Z,101191.78
2022-10-21T02:16:05.303Z,101244.19
2022-10-21T02:18:50.247Z,101233.00
2022-10-21T02:21:38.100Z,101234.66
2022-10-21T02:24:30.504Z,101231.16
2022-10-21T02:27:14.484Z,101189.88
2022-10-21T02:30:01.384Z,101189.34
2022-10-21T02:32:52.293Z,101243.59
2022-10-21T02:35:45.314Z,101243.59
2022-10-21T02:38:34.599Z,101242.31
2022-10-21T02:41:24.028Z,101195.75
2022-10-21T02:44:09.280Z,101212.44
2022-10-21T02:46:53.818Z,101206.94
2022-10-21T02:49:38.897Z,101206.53
2022-10-21T02:52:23.045Z,101258.25
2022-10-21T02:55:07.534Z,101209.72
2022-10-21T02:57:52.971Z,101263.69
2022-10-21T03:00:36.926Z,101223.72
2022-10-21T03:03:20.682Z,101262.31
2022-10-21T03:06:04.548Z,101215.84
2022-10-21T03:08:48.471Z,101187.34
2022-10-21T03:11:32.379Z,101257.06
2022-10-21T03:14:17.602Z,101239.06
2022-10-21T03:17:01.403Z,101250.19
2022-10-21T03:19:45.203Z,101265.94
2022-10-21T03:22:28.867Z,101260.06
2022-10-21T03:25:13.720Z,101225.03
2022-10-21T03:27:57.541Z,101243.03
2022-10-21T03:30:42.821Z,101257.63
2022-10-21T03:33:26.697Z,101260.00
2022-10-21T03:36:10.566Z,101253.75
2022-10-21T03:38:54.337Z,101222.94
2022-10-21T03:41:38.132Z,101251.13
2022-10-21T03:44:21.960Z,101259.25
2022-10-21T03:47:08.869Z,101267.88
2022-10-21T03:49:52.792Z,101264.34
2022-10-21T03:52:36.944Z,101275.97
2022-10-21T03:55:24.275Z,101272.91
2022-10-21T03:58:08.123Z,101267.44
2022-10-21T04:00:53.897Z,101259.34
2022-10-21T04:03:39.057Z,101269.19
2022-10-21T04:06:22.829Z,101226.75
2022-10-21T04:09:06.776Z,101270.84
2022-10-21T04:11:50.846Z,101229.03
2022-10-21T04:14:34.808Z,101266.38
2022-10-21T04:17:18.558Z,101234.25
2022-10-21T04:20:03.760Z,101248.00
2022-10-21T04:22:47.917Z,101268.75
2022-10-21T04:25:31.741Z,101262.09
2022-10-21T04:28:15.734Z,101269.16
2022-10-21T04:30:59.606Z,101268.72
2022-10-21T04:33:43.302Z,101229.75
2022-10-21T04:36:28.585Z,101279.16
2022-10-21T04:39:12.449Z,101270.75
2022-10-21T04:41:56.562Z,101282.22
2022-10-21T04:44:40.680Z,101278.72
2022-10-21T04:47:24.748Z,101285.28
2022-10-21T04:50:09.160Z,101283.22
2022-10-21T04:52:54.196Z,101287.22
2022-10-21T04:55:40.354Z,101296.53
2022-10-21T04:58:24.372Z,101284.41
2022-10-21T05:01:08.268Z,101303.47
2022-10-21T05:03:52.033Z,101311.22
2022-10-21T05:06:35.814Z,101319.34
2022-10-21T05:09:21.043Z,101306.88
2022-10-21T05:12:05.372Z,101301.59
2022-10-21T05:14:49.147Z,101321.03
2022-10-21T05:17:33.072Z,101271.50
2022-10-21T05:20:17.368Z,101315.63
2022-10-21T05:23:01.398Z,101236.91
2022-10-21T05:25:47.671Z,101278.00
2022-10-21T05:28:31.773Z,101316.47
2022-10-21T05:31:15.739Z,101282.50
2022-10-21T05:33:59.906Z,101280.44
2022-10-21T05:36:43.999Z,101327.03
2022-10-21T05:39:28.135Z,101288.66
2022-10-21T05:42:13.635Z,101314.81
2022-10-21T05:44:57.601Z,101338.34
2022-10-21T05:47:42.440Z,101337.88
2022-10-21T05:50:26.174Z,101339.38
2022-10-21T05:53:09.877Z,101342.00
2022-10-21T05:55:57.766Z,101351.56
2022-10-21T05:58:42.842Z,101341.06
2022-10-21T06:01:26.701Z,101346.13
2022-10-21T06:04:10.479Z,101356.69
2022-10-21T06:06:54.301Z,101361.91
2022-10-21T06:09:38.911Z,101353.13
2022-10-21T06:12:22.767Z,101320.06
2022-10-21T06:15:09.355Z,101368.13
2022-10-21T06:17:53.365Z,101323.13
2022-10-21T06:20:37.435Z,101317.56
2022-10-21T06:23:21.304Z,101324.66
2022-10-21T06:26:07.110Z,101362.44
2022-10-21T06:28:50.940Z,101232.41
2022-10-21T06:31:36.137Z,101356.50
2022-10-21T06:34:20.042Z,101354.44
2022-10-21T06:37:03.776Z,101356.69
2022-10-21T06:39:47.534Z,101327.97
2022-10-21T06:42:31.349Z,101354.03
2022-10-21T06:45:15.052Z,101361.47
2022-10-21T06:48:00.283Z,101354.16
2022-10-21T06:50:44.007Z,101346.53
2022-10-21T06:53:28.173Z,101344.78
2022-10-21T06:56:13.971Z,101351.22
2022-10-21T06:58:58.917Z,101350.41
2022-10-21T07:01:59.183Z,101354.59
2022-10-21T07:04:45.768Z,101352.63
2022-10-21T07:07:29.576Z,101337.00
2022-10-21T07:10:13.367Z,101346.63
2022-10-21T07:12:57.782Z,101328.53
2022-10-21T07:15:41.632Z,101349.03
2022-10-21T07:18:25.446Z,101346.91
2022-10-21T07:21:12.486Z,101345.13
2022-10-21T07:23:59.385Z,101338.00
2022-10-21T07:26:43.377Z,101333.28
2022-10-21T07:29:27.189Z,101342.03
2022-10-21T07:32:10.924Z,101346.91
2022-10-21T07:34:54.686Z,101346.44
2022-10-21T07:37:40.144Z,101327.91
2022-10-21T07:40:24.201Z,101339.19
2022-10-21T07:43:08.328Z,101297.09
2022-10-21T07:45:55.042Z,101350.25
2022-10-21T07:48:38.785Z,101317.13
2022-10-21T07:51:28.466Z,101343.22
2022-10-21T07:54:16.322Z,101339.38
2022-10-21T07:57:00.090Z,101338.56
2022-10-21T07:59:43.861Z,101339.47
2022-10-21T08:02:27.633Z,101312.13
2022-10-21T08:05:11.391Z,101336.66
2022-10-21T08:07:55.162Z,101331.66
2022-10-21T08:10:43.992Z,101330.38
2022-10-21T08:13:27.812Z,101337.81
2022-10-21T08:16:11.562Z,101339.34
2022-10-21T08:18:55.822Z,101340.22
2022-10-21T08:21:39.786Z,101334.66
2022-10-21T08:24:23.612Z,101339.34
2022-10-21T08:27:08.740Z,101328.03
2022-10-21T08:29:52.537Z,101325.34
2022-10-21T08:32:36.547Z,101308.78
2022-10-21T08:35:20.538Z,101330.69
2022-10-21T08:38:04.330Z,101326.81
2022-10-21T08:40:51.134Z,101324.31
2022-10-21T08:43:40.582Z,101325.97
2022-10-21T08:46:29.126Z,101323.81
2022-10-21T08:49:17.804Z,101329.53
2022-10-21T08:52:05.580Z,101303.41
2022-10-21T08:54:55.217Z,101322.94
2022-10-21T08:57:39.297Z,101322.13
2022-10-21T09:00:26.812Z,101319.78
2022-10-21T09:03:22.585Z,101319.63
2022-10-21T09:06:29.429Z,101321.50
2022-10-21T09:09:22.084Z,101319.03
2022-10-21T09:12:14.109Z,101307.50
2022-10-21T09:15:11.202Z,101307.66
2022-10-21T09:18:13.016Z,101291.69
2022-10-21T09:21:06.633Z,101316.00
2022-10-21T09:23:59.471Z,101309.19
2022-10-21T09:26:45.762Z,101312.28
2022-10-21T09:29:32.697Z,101314.34
2022-10-21T09:32:20.632Z,101308.88
2022-10-21T09:35:15.696Z,101299.16
2022-10-21T09:38:06.594Z,101310.22
2022-10-21T09:40:59.100Z,101295.16
2022-10-21T09:43:42.939Z,101285.41
2022-10-21T09:46:26.646Z,101284.94
2022-10-21T09:49:54.013Z,101287.25
2022-10-21T09:52:32.389Z,101285.00
2022-10-21T09:55:17.341Z,101279.38
2022-10-21T09:58:03.051Z,101269.94
2022-10-21T10:00:51.322Z,101269.53
2022-10-21T10:03:36.891Z,101255.25
2022-10-21T10:06:35.523Z,101278.66
2022-10-21T10:09:28.067Z,101268.81
2022-10-21T10:12:15.145Z,101265.16
2022-10-21T10:15:19.465Z,101265.25
2022-10-21T10:18:03.515Z,101259.50
2022-10-21T10:20:47.166Z,101255.91
2022-10-21T10:23:30.933Z,101259.84
2022-10-21T10:26:32.638Z,101261.88
2022-10-21T10:29:26.116Z,101255.88
2022-10-21T10:32:16.421Z,101255.63
2022-10-21T10:35:03.265Z,101253.38
2022-10-21T10:37:50.216Z,101253.53
2022-10-21T10:40:39.699Z,101226.91
2022-10-21T10:43:30.295Z,101234.13
2022-10-21T10:46:25.475Z,101237.69
2022-10-21T10:49:22.655Z,101228.78
2022-10-21T10:52:17.900Z,101194.47
2022-10-21T10:55:19.710Z,101227.47
2022-10-21T10:58:11.705Z,101234.47
2022-10-21T11:01:01.969Z,101224.91
2022-10-21T11:03:52.433Z,101220.00
2022-10-21T11:06:41.806Z,101223.59
2022-10-21T11:09:27.517Z,101227.56
2022-10-21T11:12:20.753Z,101229.44
2022-10-21T11:15:06.256Z,101219.28
2022-10-21T11:18:00.507Z,101218.88
2022-10-21T11:20:59.681Z,101212.63
2022-10-21T11:24:07.672Z,101220.22
2022-10-21T11:26:58.677Z,101221.94
2022-10-21T11:29:54.644Z,101222.66
2022-10-21T11:32:49.463Z,101216.22
2022-10-21T11:35:48.217Z,101212.19
2022-10-21T11:38:55.255Z,101206.78
2022-10-21T11:41:45.310Z,101211.66
2022-10-21T11:44:56.737Z,101174.91
2022-10-21T11:47:48.414Z,101197.78
2022-10-21T11:50:39.093Z,101192.81
2022-10-21T11:53:42.065Z,101176.66
2022-10-21T11:56:38.662Z,101180.19
2022-10-21T11:59:49.538Z,101181.34
2022-10-21T12:02:44.238Z,101183.50
2022-10-21T12:05:32.852Z,101177.19
2022-10-21T12:08:20.242Z,101173.50
2022-10-21T12:11:11.794Z,101177.72
2022-10-21T12:13:59.034Z,101178.44
2022-10-21T12:16:43.224Z,101185.41
2022-10-21T12:19:28.119Z,101166.03
2022-10-21T12:22:12.566Z,101167.66
2022-10-21T12:25:05.703Z,101130.69
2022-10-21T12:27:56.975Z,101168.13
2022-10-21T12:30:45.366Z,101165.28
2022-10-21T12:33:41.752Z,101168.19
2022-10-21T12:36:44.221Z,101167.31
2022-10-21T12:39:50.572Z,101163.47
2022-10-21T12:42:35.120Z,101157.63
2022-10-21T12:45:30.264Z,101163.06
2022-10-21T12:48:34.076Z,101143.78
2022-10-21T12:51:24.731Z,101159.09
2022-10-21T12:54:14.764Z,101169.88
2022-10-21T12:57:04.241Z,101164.34
2022-10-21T12:59:48.065Z,101170.34
2022-10-21T13:02:33.280Z,101119.44
2022-10-21T13:05:55.937Z,101137.19
2022-10-21T13:08:51.701Z,101172.91
2022-10-21T13:11:40.956Z,101172.88
2022-10-21T13:14:35.376Z,101171.13
2022-10-21T13:17:50.105Z,101155.66
2022-10-21T13:20:48.722Z,101172.47
2022-10-21T13:23:44.324Z,101173.53
2022-10-21T13:26:30.243Z,101176.75
2022-10-21T13:29:41.891Z,101170.56
2022-10-21T13:32:31.247Z,101169.44
2022-10-21T13:35:36.839Z,101172.28
2022-10-21T13:38:23.670Z,101137.97
2022-10-21T13:41:20.913Z,101180.84
2022-10-21T13:44:06.817Z,101173.00
2022-10-21T13:46:50.551Z,101165.19
2022-10-21T13:49:34.928Z,101161.03
2022-10-21T13:52:20.230Z,101139.00
2022-10-21T13:55:06.650Z,101159.47
2022-10-21T13:57:52.089Z,101168.59
2022-10-21T14:00:36.027Z,101169.03
2022-10-21T14:03:21.517Z,101170.03
2022-10-21T14:06:08.702Z,101158.88
2022-10-21T14:08:55.774Z,101171.69
2022-10-21T14:11:46.727Z,101165.13
2022-10-21T14:14:33.411Z,101131.13
2022-10-21T14:17:19.436Z,101135.50
2022-10-21T14:20:07.625Z,101162.91
2022-10-21T14:22:52.490Z,101158.25
2022-10-21T14:25:37.900Z,101142.84
2022-10-21T14:28:22.300Z,101154.47
2022-10-21T14:33:58.557Z,101159.63
2022-10-21T14:37:09.306Z,101158.50
2022-10-21T14:40:11.081Z,101155.47
2022-10-21T14:42:57.345Z,101142.34
2022-10-21T14:45:47.255Z,101152.72
2022-10-21T14:48:33.515Z,101152.34
2022-10-21T14:51:21.396Z,101152.22
2022-10-21T14:54:07.382Z,101147.13
2022-10-21T14:56:51.104Z,101158.81
2022-10-21T14:59:41.096Z,101149.34
2022-10-21T15:02:29.349Z,101156.50
2022-10-21T15:05:29.466Z,101163.63
2022-10-21T15:08:33.204Z,101160.53
2022-10-21T15:11:23.726Z,101166.59
2022-10-21T15:14:28.672Z,101165.94
2022-10-21T15:17:17.802Z,101151.44
2022-10-21T15:20:03.007Z,101161.69
2022-10-21T15:22:49.828Z,101167.56
2022-10-21T15:25:33.621Z,100977.97
2022-10-21T15:28:20.702Z,101170.59
2022-10-21T15:31:08.162Z,101176.97
2022-10-21T15:33:58.741Z,101179.78
2022-10-21T15:36:42.985Z,101180.44
2022-10-21T15:39:26.745Z,101177.66
2022-10-21T15:42:11.534Z,101183.16
2022-10-21T15:44:55.264Z,101173.53
2022-10-21T15:47:39.204Z,101184.06
2022-10-21T15:50:26.854Z,101190.00
2022-10-21T15:53:10.758Z,101176.81
2022-10-21T15:55:55.206Z,101185.88
2022-10-21T15:58:39.248Z,101189.28
2022-10-21T16:01:23.030Z,101178.69
2022-10-21T16:04:06.689Z,101190.88
2022-10-21T16:06:52.927Z,101200.16
2022-10-21T16:09:36.745Z,101196.19
2022-10-21T16:12:22.321Z,101199.72
2022-10-21T16:15:06.558Z,101198.00
2022-10-21T16:17:53.535Z,101205.97
2022-10-21T16:20:37.398Z,101197.94
2022-10-21T16:23:22.829Z,101203.41
2022-10-21T16:26:14.753Z,101206.78
2022-10-21T16:28:59.827Z,101179.47
2022-10-21T16:31:43.611Z,101215.31
2022-10-21T16:34:27.321Z,101208.28
2022-10-21T16:37:22.492Z,101171.13
2022-10-21T16:40:17.819Z,101213.28
2022-10-21T16:43:01.635Z,101210.63
2022-10-21T16:45:45.639Z,101192.31
2022-10-21T16:48:29.410Z,101214.47
2022-10-21T16:51:13.352Z,101211.50
2022-10-21T16:53:57.164Z,101183.66
2022-10-21T16:56:42.269Z,101214.25
2022-10-21T16:59:26.149Z,101204.28
2022-10-21T17:02:16.209Z,101206.50
2022-10-21T17:05:00.029Z,101215.03
2022-10-21T17:07:43.808Z,101220.75
2022-10-21T17:10:27.642Z,101209.81
2022-10-21T17:13:13.596Z,101208.25
2022-10-21T17:15:57.453Z,101215.97
2022-10-21T17:18:41.727Z,101028.91
2022-10-21T17:21:27.746Z,101223.31
2022-10-21T17:24:15.034Z,101225.16
2022-10-21T17:26:58.905Z,101225.09
2022-10-21T17:29:44.060Z,101213.50
2022-10-21T17:32:27.868Z,101222.53
2022-10-21T17:35:18.582Z,101191.53
2022-10-21T17:38:02.744Z,101229.91
2022-10-21T17:40:46.471Z,101229.56
2022-10-21T17:43:30.401Z,101202.97
2022-10-21T17:46:19.233Z,101226.66
2022-10-21T17:49:02.972Z,101235.88
2022-10-21T17:51:46.651Z,101217.28
2022-10-21T17:54:31.726Z,101234.66
2022-10-21T17:57:17.783Z,101245.41
2022-10-21T18:00:03.622Z,101243.38
2022-10-21T18:02:49.992Z,101221.25
2022-10-21T18:05:33.793Z,101238.91
2022-10-21T18:08:17.686Z,101227.31
2022-10-21T18:11:02.226Z,101238.28
2022-10-21T18:13:46.672Z,101249.00
2022-10-21T18:16:30.681Z,101241.56
2022-10-21T18:19:15.898Z,101239.75
2022-10-21T18:21:59.627Z,101240.59
2022-10-21T18:24:43.408Z,101243.16
2022-10-21T18:27:27.266Z,101241.47
2022-10-21T18:30:12.271Z,101188.06
2022-10-21T18:32:56.012Z,101236.03
2022-10-21T18:35:41.199Z,101249.38
2022-10-21T18:38:25.089Z,101248.19
2022-10-21T18:41:26.349Z,101250.97
2022-10-21T18:44:11.983Z,101227.97
2022-10-21T18:46:56.174Z,101240.88
2022-10-21T18:49:40.247Z,101246.66
2022-10-21T18:52:25.609Z,101243.22
2022-10-21T18:55:10.126Z,101254.59
2022-10-21T18:57:54.374Z,101235.47
2022-10-21T19:00:38.557Z,101253.81
2022-10-21T19:03:22.496Z,101242.13
2022-10-21T19:06:17.851Z,101250.91
2022-10-21T19:09:05.367Z,101253.19
2022-10-21T19:11:50.012Z,101250.56
2022-10-21T19:14:34.154Z,101253.84
2022-10-21T19:17:19.234Z,101256.78
2022-10-21T19:20:04.064Z,101224.06
2022-10-21T19:22:47.995Z,101214.50
2022-10-21T19:25:33.821Z,101256.13
2022-10-21T19:28:17.873Z,101256.69
2022-10-21T19:31:01.908Z,101260.31
2022-10-21T19:33:45.930Z,101250.00
2022-10-21T19:36:29.859Z,101246.06
2022-10-21T19:39:14.090Z,101253.06
2022-10-21T19:41:59.746Z,101239.84
2022-10-21T19:44:43.471Z,101245.94
2022-10-21T19:47:27.119Z,101253.16
2022-10-21T19:52:59.829Z,101247.47
2022-10-21T19:55:43.594Z,101247.28
2022-10-21T19:58:28.829Z,101248.59
2022-10-21T20:01:14.822Z,101245.88
2022-10-21T20:03:58.764Z,101252.06
2022-10-21T20:06:42.521Z,101234.84
2022-10-21T20:09:26.341Z,101240.50
2022-10-21T20:12:10.055Z,101236.97
2022-10-21T20:14:55.170Z,101239.22
2022-10-21T20:17:38.945Z,101242.88
2022-10-21T20:20:22.833Z,101245.09
2022-10-21T20:23:06.634Z,101239.28
2022-10-21T20:25:50.811Z,101245.09
2022-10-21T20:28:34.857Z,101209.56
2022-10-21T20:31:20.093Z,101231.41
2022-10-21T20:34:04.195Z,101232.00
2022-10-21T20:36:48.010Z,101236.94
2022-10-21T20:39:31.762Z,101237.97
2022-10-21T20:42:15.535Z,101212.91
2022-10-21T20:44:59.349Z,101236.00
2022-10-21T20:47:44.518Z,101229.78
2022-10-21T20:50:29.007Z,101198.00
2022-10-21T20:53:12.858Z,101225.66
2022-10-21T20:55:57.117Z,101234.53
2022-10-21T20:58:42.075Z,101191.00
2022-10-21T21:01:27.972Z,101219.63
2022-10-21T21:04:14.839Z,101202.66
2022-10-21T21:06:58.583Z,101202.84
2022-10-21T21:10:01.618Z,101192.31
2022-10-21T21:12:47.699Z,101222.44
2022-10-21T21:15:31.434Z,101208.13
2022-10-21T21:18:15.098Z,101154.44
2022-10-21T21:21:04.990Z,101207.97
2022-10-21T21:23:49.513Z,101200.84
2022-10-21T21:26:34.766Z,101161.88
2022-10-21T21:29:18.541Z,101176.31
2022-10-21T21:32:02.308Z,101198.22
2022-10-21T21:34:47.490Z,101198.06
2022-10-21T21:37:32.618Z,101200.41
2022-10-21T21:40:16.494Z,101193.41
2022-10-21T21:43:00.251Z,101185.50
2022-10-21T21:45:45.670Z,101171.97
2022-10-21T21:48:29.472Z,101189.31
2022-10-21T21:51:13.282Z,101179.81
2022-10-21T21:53:59.024Z,101177.91
2022-10-21T21:56:42.791Z,101176.06
2022-10-21T21:59:26.782Z,101172.59
2022-10-21T22:02:10.503Z,101128.38
2022-10-21T22:04:54.303Z,101167.66
2022-10-21T22:07:38.497Z,101167.75
2022-10-21T22:10:23.928Z,101160.78
2022-10-21T22:13:07.873Z,101163.31
2022-10-21T22:15:52.521Z,101167.81
2022-10-21T22:18:36.667Z,101170.84
2022-10-21T22:21:20.490Z,101160.75
2022-10-21T22:24:04.299Z,101096.53
2022-10-21T22:26:49.418Z,101110.44
2022-10-21T22:29:33.239Z,101131.16
2022-10-21T22:32:17.654Z,101143.88
2022-10-21T22:35:01.343Z,101136.78
2022-10-21T22:37:46.707Z,101152.13
2022-10-21T22:40:30.620Z,101153.13
2022-10-21T22:43:15.771Z,101146.44
2022-10-21T22:46:05.051Z,101148.06
2022-10-21T22:49:04.416Z,101150.97
2022-10-21T22:51:48.373Z,101143.78
2022-10-21T22:54:48.575Z,101127.94
2022-10-21T22:57:33.523Z,101134.78
2022-10-21T23:00:18.927Z,101141.59
2022-10-21T23:03:06.058Z,101129.59
2022-10-21T23:05:52.595Z,101143.75
2022-10-21T23:08:37.955Z,101141.22
2022-10-21T23:11:21.788Z,101059.03
2022-10-21T23:14:08.699Z,101146.59
2022-10-21T23:16:54.464Z,101150.63
2022-10-21T23:19:38.478Z,101149.69
2022-10-21T23:22:22.394Z,101149.31
2022-10-21T23:25:06.962Z,101107.34
2022-10-21T23:27:51.069Z,101122.91
2022-10-21T23:30:34.912Z,101148.47
2022-10-21T23:33:20.030Z,101156.09
2022-10-21T23:36:03.897Z,101131.88
2022-10-21T23:38:47.923Z,101106.72
2022-10-21T23:41:31.896Z,101144.69
2022-10-21T23:44:16.144Z,101155.13
2022-10-21T23:46:59.917Z,101157.31
2022-10-21T23:49:45.092Z,101156.53
2022-10-21T23:52:28.846Z,101135.72
2022-10-21T23:55:12.526Z,101145.66
2022-10-21T23:57:57.471Z,101140.72
